Bei Facebook empfehlenBei Twitter postenGoogle plusPinterest

Das Wetter im Erzgebirge am 30.10.2016

Wetter und Klima am 30.10.2016 Holzhau im Erzgebirge (630m ü.NN)
Letzte gemessene Temperatur und Uhrzeit der Messung23:45:00 Uhr0.90 °C
Temperatur (Maximum / Höchstwert) und Uhrzeit der Messung15:00:00 Uhr7.80 °C
Temperatur (Minimum / Tiefstwert) und Uhrzeit der Messung23:45:000.90 °C
Errechneter Absolutwert der Temperaturschwankungen zwischen Tmin und Tmax des Tages6.90 K
Errechnete Tagesmitteltemperatur4.96458 °C
Gesamt - Niederschlag des Tages (in flüssiger Form)0.52 Liter / m²
Luftdruck (Maximum / Höchstwert) und Zeitpunkt der Messung23:15:00 Uhr1024.70 hPa
Luftdruck (Minimum / Tiefstwert) und Zeitpunkt der Messung07:15:00 Uhr1022.30 hPa
Errechneter Absolutwert der Luftdruckschwankungen des Tages2.40 hPa
Höchste gemessene Windgeschwindigkeit und Uhrzeit der Messung23:45:00 Uhr0.00 km/h
Errechnete Windhäufigkeit in Relation zu den Messwerten des Tages0.00000 %
Niedrigste Windkühle (Windchill) und Zeitpunkt der Messung23:45:00 Uhr0.90 °C
Taupunkt (Maximum / Höchstwert) und Uhrzeit der Messung14:00:00 Uhr6.70 °C
Taupunkt (Minimum / Tiefstwert) und Uhrzeit der Messung23:45:00-0.10 °C
Anzahl der automatisch eingelesenen Messwerte 96

Detaillierte Wetter- und Klima- Messwerte für den 30.10.2016 in Holzhau im Erzgebirge (630m ü.NN)
ZeitTemperaturLuftdruckRel. LuftfeuchteWindWindrichtungWindchillTaupunktNiederschlag l/m²
23:45:000.90 °C1024.60 hPa93.00 %-0.10 °C0.52
23:30:000.90 °C1024.50 hPa93.00 %-0.10 °C0.52
23:15:001.00 °C1024.70 hPa93.00 %0.00 °C0.52
23:00:001.30 °C1024.60 hPa93.00 %0.30 °C0.52
22:45:001.30 °C1024.70 hPa93.00 %0.30 °C0.52
22:30:001.30 °C1024.60 hPa92.00 %0.10 °C0.52
22:15:001.30 °C1024.60 hPa92.00 %0.10 °C0.52
22:00:001.60 °C1024.30 hPa92.00 %0.40 °C0.52
21:45:001.90 °C1024.30 hPa92.00 %0.70 °C0.52
21:30:002.30 °C1024.40 hPa92.00 %1.10 °C0.52
21:15:002.50 °C1024.20 hPa92.00 %1.30 °C0.52
21:00:002.80 °C1024.20 hPa92.00 %1.60 °C0.52
20:45:002.90 °C1024.10 hPa92.00 %1.70 °C0.52
20:30:003.40 °C1024.10 hPa91.00 %2.10 °C0.52
20:15:003.90 °C1024.20 hPa92.00 %2.70 °C0.52
20:00:003.90 °C1024.10 hPa92.00 %2.70 °C0.52
19:45:004.10 °C1024.00 hPa91.00 %2.80 °C0.52
19:30:004.30 °C1024.00 hPa91.00 %3.00 °C0.52
19:15:004.30 °C1023.90 hPa91.00 %3.00 °C0.52
19:00:004.30 °C1023.70 hPa90.00 %2.80 °C0.52
18:45:004.40 °C1023.70 hPa90.00 %2.90 °C0.52
18:30:004.70 °C1023.30 hPa90.00 %3.20 °C0.52
18:15:005.00 °C1023.40 hPa89.00 %3.30 °C0.52
18:00:005.60 °C1023.30 hPa89.00 %3.90 °C0.52
17:45:005.90 °C1023.10 hPa89.00 %4.20 °C0.52
17:30:006.30 °C1023.10 hPa88.00 %4.50 °C0.52
17:15:006.40 °C1022.90 hPa88.00 %4.60 °C0.52
17:00:006.50 °C1022.80 hPa88.00 %4.70 °C0.52
16:45:006.40 °C1022.70 hPa88.00 %4.60 °C0.52
16:30:006.40 °C1022.50 hPa88.00 %4.60 °C0.52
16:15:006.90 °C1022.80 hPa88.00 %5.10 °C0.52
16:00:007.30 °C1022.60 hPa89.00 %5.60 °C0.52
15:45:007.30 °C1022.60 hPa89.00 %5.60 °C0.52
15:30:007.10 °C1022.60 hPa90.00 %5.60 °C0.52
15:15:006.90 °C1022.50 hPa89.00 %5.20 °C0.52
15:00:007.80 °C1022.60 hPa90.00 %6.30 °C0.52
14:45:007.80 °C1022.50 hPa92.00 %6.60 °C0.52
14:30:007.20 °C1022.80 hPa92.00 %6.00 °C0.52
14:15:007.40 °C1022.90 hPa93.00 %6.30 °C0.52
14:00:007.40 °C1022.90 hPa95.00 %6.70 °C0.52
13:45:006.40 °C1022.80 hPa95.00 %5.70 °C0.52
13:30:006.10 °C1022.90 hPa95.00 %5.40 °C0.52
13:15:005.90 °C1022.90 hPa95.00 %5.20 °C0.52
13:00:005.80 °C1022.80 hPa95.00 %5.10 °C0.52
12:45:005.90 °C1022.90 hPa95.00 %5.20 °C0.52
12:30:006.10 °C1022.90 hPa96.00 %5.50 °C0.52
12:15:006.10 °C1023.00 hPa96.00 %5.50 °C0.52
12:00:006.20 °C1023.10 hPa96.00 %5.60 °C0.52
11:45:005.80 °C1023.10 hPa96.00 %5.20 °C0.52
11:30:005.60 °C1023.00 hPa96.00 %5.00 °C0.52
11:15:005.40 °C1023.10 hPa96.00 %4.80 °C0.52
11:00:005.40 °C1022.90 hPa96.00 %4.80 °C0.52
10:45:005.40 °C1022.90 hPa96.00 %4.80 °C0.52
10:30:005.40 °C1022.70 hPa96.00 %4.80 °C0.52
10:15:005.20 °C1022.90 hPa96.00 %4.60 °C0.52
10:00:005.10 °C1022.80 hPa96.00 %4.50 °C0.52
09:45:005.00 °C1022.90 hPa96.00 %4.40 °C0.52
09:30:004.90 °C1022.70 hPa96.00 %4.30 °C0.52
09:15:004.90 °C1022.80 hPa96.00 %4.30 °C0.52
09:00:004.90 °C1022.80 hPa96.00 %4.30 °C0.52
08:45:004.90 °C1022.50 hPa96.00 %4.30 °C0.52
08:30:004.90 °C1022.50 hPa96.00 %4.30 °C0.52
08:15:004.80 °C1022.40 hPa96.00 %4.20 °C0.52
08:00:004.80 °C1022.40 hPa96.00 %4.20 °C0.52
07:45:004.80 °C1022.40 hPa96.00 %4.20 °C 
07:30:004.80 °C1022.40 hPa95.00 %4.10 °C 
07:15:004.80 °C1022.30 hPa95.00 %4.10 °C 
07:00:004.80 °C1022.40 hPa95.00 %4.10 °C 
06:45:004.80 °C1022.60 hPa95.00 %4.10 °C 
06:30:004.90 °C1022.80 hPa94.00 %4.00 °C 
06:15:005.10 °C1022.90 hPa94.00 %4.20 °C 
06:00:005.10 °C1022.80 hPa95.00 %4.40 °C 
05:45:005.20 °C1022.80 hPa95.00 %4.50 °C 
05:30:005.20 °C1022.80 hPa95.00 %4.50 °C 
05:15:005.20 °C1022.80 hPa95.00 %4.50 °C 
05:00:005.10 °C1022.50 hPa95.00 %4.40 °C 
04:45:005.10 °C1022.80 hPa95.00 %4.40 °C 
04:30:005.10 °C1022.90 hPa95.00 %4.40 °C 
04:15:005.10 °C1023.10 hPa95.00 %4.40 °C 
04:00:005.10 °C1023.00 hPa95.00 %4.40 °C 
03:45:005.10 °C1022.90 hPa95.00 %4.40 °C 
03:30:005.10 °C1022.90 hPa95.00 %4.40 °C 
03:15:005.10 °C1023.00 hPa95.00 %4.40 °C 
03:00:005.10 °C1023.10 hPa94.00 %4.20 °C 
02:45:005.30 °C1023.80 hPa95.00 %4.60 °C 
02:30:005.30 °C1023.90 hPa95.00 %4.60 °C 
02:15:005.30 °C1023.80 hPa95.00 %4.60 °C 
02:00:005.30 °C1023.70 hPa95.00 %4.60 °C 
01:45:005.30 °C1023.80 hPa95.00 %4.60 °C 
01:30:005.30 °C1023.80 hPa95.00 %4.60 °C 
01:15:005.30 °C1023.90 hPa95.00 %4.60 °C 
01:00:005.30 °C1023.90 hPa94.00 %4.40 °C 
00:45:005.30 °C1023.90 hPa94.00 %4.40 °C 
00:30:005.50 °C1023.90 hPa94.00 %4.60 °C 
00:15:005.50 °C1024.10 hPa94.00 %4.60 °C 
00:00:005.50 °C1024.00 hPa94.00 %4.60 °C 

Permanenter Link zu dieser Seite: Wetter im Erzgebirge am 30.10.2016
Performance-Info: Die Erstellung der Seite / Statistik(en) / Tabelle(n) erforderte 5 Datenbankserver-Abfrage(n) und dauerte 103 Millisekunden. (Dieser Messwert ist von der Gesamt-Auslastung des Servers abhängig.)
Erzgebirge - Wetter | Erzgebirge - Wetter (Mobilgeräte) | Komplette Klimadatenbank